createdAt,value
2019-03-06T00:01:09.176Z,5.37
2019-03-06T00:04:18.001Z,5.42
2019-03-06T00:07:27.475Z,5.39
2019-03-06T00:10:36.455Z,5.41
2019-03-06T00:13:45.214Z,5.39
2019-03-06T00:16:53.855Z,5.38
2019-03-06T00:20:05.637Z,5.40
2019-03-06T00:23:14.927Z,5.35
2019-03-06T00:26:24.631Z,5.17
2019-03-06T00:29:33.649Z,5.13
2019-03-06T00:32:42.524Z,5.12
2019-03-06T00:35:52.206Z,5.09
2019-03-06T00:39:01.234Z,5.10
2019-03-06T00:42:09.917Z,5.07
2019-03-06T00:45:18.780Z,5.00
2019-03-06T00:48:27.498Z,5.01
2019-03-06T00:51:37.614Z,5.00
2019-03-06T00:54:47.156Z,4.86
2019-03-06T00:57:55.990Z,4.95
2019-03-06T01:01:04.764Z,4.95
2019-03-06T01:04:13.303Z,4.99
2019-03-06T01:07:22.132Z,4.93
2019-03-06T01:10:30.686Z,4.93
2019-03-06T01:13:49.751Z,4.86
2019-03-06T01:16:57.113Z,4.81
2019-03-06T01:20:16.717Z,4.94
2019-03-06T01:23:26.601Z,4.93
2019-03-06T01:26:35.361Z,4.98
2019-03-06T01:29:54.827Z,5.02
2019-03-06T01:33:09.187Z,5.01
2019-03-06T01:36:43.405Z,5.06
2019-03-06T01:40:10.335Z,5.12
2019-03-06T01:43:27.760Z,5.18
2019-03-06T01:46:36.404Z,5.16
2019-03-06T01:49:44.916Z,5.13
2019-03-06T01:52:53.543Z,5.12
2019-03-06T01:56:03.343Z,5.17
2019-03-06T01:59:12.181Z,5.19
2019-03-06T02:02:21.393Z,5.18
2019-03-06T02:05:31.205Z,5.11
2019-03-06T02:08:39.980Z,5.08
2019-03-06T02:11:58.808Z,5.06
2019-03-06T02:15:08.986Z,4.98
2019-03-06T02:18:17.778Z,4.93
2019-03-06T02:21:26.474Z,4.91
2019-03-06T02:24:35.489Z,4.81
2019-03-06T02:27:44.329Z,4.87
2019-03-06T02:30:53.044Z,4.81
2019-03-06T02:34:03.311Z,4.77
2019-03-06T02:37:11.943Z,4.65
2019-03-06T02:40:22.410Z,4.64
2019-03-06T02:43:31.147Z,4.74
2019-03-06T02:46:39.902Z,4.84
2019-03-06T02:49:51.173Z,4.64
2019-03-06T02:53:10.297Z,4.52
2019-03-06T02:56:19.022Z,4.35
2019-03-06T02:59:55.440Z,4.15
2019-03-06T03:03:31.382Z,4.26
2019-03-06T03:06:46.270Z,4.37
2019-03-06T03:09:55.287Z,4.50
2019-03-06T03:13:04.026Z,4.34
2019-03-06T03:16:12.734Z,4.28
2019-03-06T03:19:21.716Z,4.33
2019-03-06T03:22:31.799Z,4.21
2019-03-06T03:25:38.866Z,4.38
2019-03-06T03:28:47.659Z,4.51
2019-03-06T03:32:06.739Z,4.69
2019-03-06T03:35:25.890Z,4.64
2019-03-06T03:38:34.629Z,4.48
2019-03-06T03:41:43.390Z,4.30
2019-03-06T03:44:52.163Z,4.26
2019-03-06T03:47:59.975Z,4.37
2019-03-06T03:51:18.817Z,4.45
2019-03-06T03:54:26.372Z,4.39
2019-03-06T03:57:46.612Z,4.54
2019-03-06T04:00:55.339Z,4.39
2019-03-06T04:04:03.890Z,4.25
2019-03-06T04:07:12.596Z,4.13
2019-03-06T04:10:21.790Z,4.10
2019-03-06T04:13:30.446Z,4.18
2019-03-06T04:16:39.438Z,4.14
2019-03-06T04:19:49.982Z,4.16
2019-03-06T04:22:58.508Z,3.98
2019-03-06T04:26:07.397Z,4.22
2019-03-06T04:29:16.216Z,4.24
2019-03-06T04:32:24.918Z,4.14
2019-03-06T04:35:33.676Z,4.01
2019-03-06T04:38:43.860Z,4.09
2019-03-06T04:41:52.656Z,4.01
2019-03-06T04:45:01.379Z,4.04
2019-03-06T04:48:10.161Z,4.15
2019-03-06T04:51:19.076Z,4.23
2019-03-06T04:54:27.668Z,4.26
2019-03-06T04:57:38.254Z,4.36
2019-03-06T05:00:45.368Z,4.36
2019-03-06T05:03:54.213Z,4.40
2019-03-06T05:07:22.119Z,4.35
2019-03-06T05:10:30.865Z,4.46
2019-03-06T05:13:39.621Z,4.40
2019-03-06T05:17:06.173Z,4.28
2019-03-06T05:20:14.978Z,4.37
2019-03-06T05:23:25.543Z,4.30
2019-03-06T05:26:34.187Z,4.40
2019-03-06T05:29:42.762Z,4.33
2019-03-06T05:32:51.400Z,4.15
2019-03-06T05:37:01.916Z,4.31
2019-03-06T05:40:11.100Z,4.18
2019-03-06T05:43:19.702Z,4.19
2019-03-06T05:46:28.574Z,4.20
2019-03-06T05:49:37.390Z,4.27
2019-03-06T05:52:46.069Z,4.14
2019-03-06T05:55:56.105Z,4.28
2019-03-06T05:59:04.904Z,4.24
2019-03-06T06:02:27.937Z,4.21
2019-03-06T06:05:47.879Z,4.42
2019-03-06T06:08:58.236Z,4.49
2019-03-06T06:12:06.877Z,4.56
2019-03-06T06:15:15.613Z,4.66
2019-03-06T06:18:24.334Z,4.72
2019-03-06T06:21:45.042Z,4.66
2019-03-06T06:24:53.674Z,4.37
2019-03-06T06:28:02.499Z,4.45
2019-03-06T06:31:11.133Z,4.48
2019-03-06T06:34:19.830Z,4.57
2019-03-06T06:37:28.387Z,4.54
2019-03-06T06:40:37.406Z,4.69
2019-03-06T06:43:46.089Z,4.67
2019-03-06T06:46:55.979Z,4.64
2019-03-06T06:50:14.864Z,4.59
2019-03-06T06:53:43.734Z,4.63
2019-03-06T06:57:42.565Z,4.72
2019-03-06T07:02:05.448Z,4.81
2019-03-06T07:05:41.050Z,4.75
2019-03-06T07:09:28.221Z,4.76
2019-03-06T07:12:58.550Z,4.74
2019-03-06T07:16:42.989Z,4.98
2019-03-06T07:19:59.082Z,4.89
2019-03-06T07:23:24.849Z,5.05
2019-03-06T07:26:49.249Z,5.01
2019-03-06T07:30:25.880Z,5.22
2019-03-06T07:34:08.698Z,5.25
2019-03-06T07:37:32.832Z,5.35
2019-03-06T07:41:12.449Z,5.30
2019-03-06T07:44:44.124Z,5.34
2019-03-06T07:48:32.795Z,5.46
2019-03-06T07:52:18.573Z,5.46
2019-03-06T07:55:41.858Z,5.50
2019-03-06T07:58:58.438Z,5.56
2019-03-06T08:02:12.431Z,5.53
2019-03-06T08:05:21.149Z,5.77
2019-03-06T08:08:40.346Z,5.90
2019-03-06T08:12:20.155Z,5.74
2019-03-06T08:15:49.882Z,5.80
2019-03-06T08:19:17.996Z,5.83
2019-03-06T08:22:48.372Z,5.75
2019-03-06T08:25:56.969Z,5.80
2019-03-06T08:29:09.495Z,5.81
2019-03-06T08:32:33.522Z,6.08
2019-03-06T08:35:43.168Z,6.09
2019-03-06T08:39:01.978Z,6.28
2019-03-06T08:42:10.560Z,6.22
2019-03-06T08:45:20.983Z,6.30
2019-03-06T08:48:36.995Z,6.47
2019-03-06T08:52:12.454Z,6.48
2019-03-06T08:55:27.354Z,6.41
2019-03-06T08:58:41.808Z,6.55
2019-03-06T09:02:00.924Z,6.65
2019-03-06T09:05:38.800Z,6.72
2019-03-06T09:09:05.185Z,6.67
2019-03-06T09:12:28.374Z,6.69
2019-03-06T09:15:50.050Z,6.92
2019-03-06T09:19:20.826Z,7.05
2019-03-06T09:22:46.398Z,6.95
2019-03-06T09:26:04.632Z,6.97
2019-03-06T09:29:29.500Z,7.15
2019-03-06T09:32:43.879Z,7.13
2019-03-06T09:36:04.458Z,7.17
2019-03-06T09:39:32.575Z,7.28
2019-03-06T09:42:51.543Z,7.34
2019-03-06T09:46:26.903Z,7.57
2019-03-06T09:49:53.374Z,7.58
2019-03-06T09:53:10.028Z,7.50
2019-03-06T09:56:40.584Z,7.44
2019-03-06T10:00:33.930Z,7.76
2019-03-06T10:03:57.005Z,7.73
2019-03-06T10:07:24.791Z,7.83
2019-03-06T10:10:47.575Z,8.01
2019-03-06T10:14:12.553Z,8.16
2019-03-06T10:17:51.599Z,8.35
2019-03-06T10:21:14.599Z,8.45
2019-03-06T10:24:23.179Z,8.54
2019-03-06T10:27:31.859Z,8.33
2019-03-06T10:30:40.732Z,8.41
2019-03-06T10:33:49.377Z,8.59
2019-03-06T10:36:58.064Z,8.62
2019-03-06T10:40:09.039Z,8.60
2019-03-06T10:43:17.637Z,8.86
2019-03-06T10:46:26.367Z,9.02
2019-03-06T10:49:35.118Z,8.86
2019-03-06T10:52:43.871Z,8.94
2019-03-06T10:56:03.751Z,9.02
2019-03-06T10:59:12.740Z,9.22
2019-03-06T11:02:31.676Z,9.16
2019-03-06T11:05:40.426Z,9.40
2019-03-06T11:08:49.479Z,9.56
2019-03-06T11:12:10.072Z,9.86
2019-03-06T11:15:29.398Z,9.99
2019-03-06T11:18:38.095Z,10.11
2019-03-06T11:21:46.750Z,10.42
2019-03-06T11:24:55.634Z,10.56
2019-03-06T11:28:04.845Z,10.57
2019-03-06T11:31:25.157Z,10.44
2019-03-06T11:34:33.834Z,10.39
2019-03-06T11:37:42.969Z,10.31
2019-03-06T11:40:51.830Z,10.35
2019-03-06T11:44:00.515Z,10.28
2019-03-06T11:47:09.190Z,10.37
2019-03-06T11:50:18.849Z,10.45
2019-03-06T11:53:37.695Z,10.53
2019-03-06T11:56:47.353Z,10.43
2019-03-06T11:59:56.235Z,10.51
2019-03-06T12:03:06.557Z,10.59
2019-03-06T12:06:15.186Z,10.76
2019-03-06T12:09:42.340Z,10.71
2019-03-06T12:12:51.046Z,10.97
2019-03-06T12:15:59.737Z,10.90
2019-03-06T12:19:08.584Z,10.82
2019-03-06T12:22:17.359Z,10.84
2019-03-06T12:25:25.942Z,10.88
2019-03-06T12:28:35.799Z,10.85
2019-03-06T12:31:44.683Z,10.86
2019-03-06T12:35:03.444Z,10.92
2019-03-06T12:38:12.037Z,10.80
2019-03-06T12:41:20.613Z,10.86
2019-03-06T12:44:29.220Z,10.72
2019-03-06T12:47:38.105Z,10.82
2019-03-06T12:50:53.978Z,10.72
2019-03-06T12:53:58.301Z,10.73
2019-03-06T12:57:17.181Z,10.86
2019-03-06T13:00:26.190Z,10.89
2019-03-06T13:03:47.347Z,10.98
2019-03-06T13:06:55.644Z,10.93
2019-03-06T13:10:04.338Z,11.09
2019-03-06T13:13:13.046Z,11.03
2019-03-06T13:16:21.713Z,11.07
2019-03-06T13:19:30.432Z,11.03
2019-03-06T13:22:39.153Z,11.16
2019-03-06T13:25:47.842Z,11.00
2019-03-06T13:28:57.648Z,11.02
2019-03-06T13:32:16.846Z,11.13
2019-03-06T13:35:25.791Z,11.17
2019-03-06T13:38:54.486Z,11.12
2019-03-06T13:42:07.239Z,11.13
2019-03-06T13:45:16.627Z,11.18
2019-03-06T13:48:35.447Z,11.24
2019-03-06T13:51:58.223Z,11.34
2019-03-06T13:55:08.764Z,11.37
2019-03-06T13:58:17.344Z,11.37
2019-03-06T14:01:26.102Z,11.46
2019-03-06T14:04:34.737Z,11.58
2019-03-06T14:07:43.428Z,11.44
2019-03-06T14:10:52.196Z,11.51
2019-03-06T14:14:01.024Z,11.52
2019-03-06T14:17:09.824Z,11.53
2019-03-06T14:20:19.062Z,11.53
2019-03-06T14:23:35.543Z,11.65
2019-03-06T14:26:47.868Z,11.66
2019-03-06T14:30:04.476Z,11.65
2019-03-06T14:33:11.923Z,11.59
2019-03-06T14:36:20.657Z,11.76
2019-03-06T14:39:31.569Z,11.66
2019-03-06T14:42:50.407Z,11.80
2019-03-06T14:45:58.991Z,11.78
2019-03-06T14:49:07.868Z,11.57
2019-03-06T14:52:16.586Z,11.75
2019-03-06T14:55:25.127Z,11.73
2019-03-06T14:58:33.801Z,11.82
2019-03-06T15:01:42.698Z,11.82
2019-03-06T15:04:51.584Z,11.88
2019-03-06T15:08:00.380Z,11.91
2019-03-06T15:11:09.059Z,11.78
2019-03-06T15:14:17.898Z,11.78
2019-03-06T15:17:26.497Z,11.87
2019-03-06T15:20:35.097Z,11.88
2019-03-06T15:23:43.809Z,11.94
2019-03-06T15:26:52.663Z,11.90
2019-03-06T15:30:01.286Z,11.81
2019-03-06T15:33:10.050Z,11.63
2019-03-06T15:36:29.183Z,11.80
2019-03-06T15:39:48.485Z,11.70
2019-03-06T15:42:57.754Z,11.62
2019-03-06T15:46:16.935Z,11.75
2019-03-06T15:49:25.713Z,11.67
2019-03-06T15:52:34.281Z,11.68
2019-03-06T15:55:43.377Z,11.57
2019-03-06T15:59:02.642Z,11.67
2019-03-06T16:02:11.529Z,11.66
2019-03-06T16:05:21.079Z,11.55
2019-03-06T16:08:30.163Z,11.50
2019-03-06T16:11:38.884Z,11.53
2019-03-06T16:14:51.572Z,11.50
2019-03-06T16:18:02.391Z,11.41
2019-03-06T16:21:21.528Z,11.44
2019-03-06T16:24:28.614Z,11.51
2019-03-06T16:27:37.177Z,11.60
2019-03-06T16:30:46.356Z,11.51
2019-03-06T16:34:05.968Z,11.34
2019-03-06T16:37:24.806Z,11.28
2019-03-06T16:40:34.984Z,11.01
2019-03-06T16:43:42.044Z,10.99
2019-03-06T16:46:50.815Z,10.98
2019-03-06T16:49:59.497Z,10.91
2019-03-06T16:53:08.272Z,10.87
2019-03-06T16:56:16.969Z,10.81
2019-03-06T16:59:25.884Z,10.87
2019-03-06T17:02:34.586Z,11.00
2019-03-06T17:05:43.326Z,10.90
2019-03-06T17:08:51.836Z,10.91
2019-03-06T17:12:00.865Z,10.94
2019-03-06T17:15:09.953Z,11.01
2019-03-06T17:18:18.579Z,10.91
2019-03-06T17:21:30.005Z,10.78
2019-03-06T17:24:48.978Z,10.48
2019-03-06T17:27:57.698Z,10.40
2019-03-06T17:31:06.691Z,10.38
2019-03-06T17:34:15.678Z,10.19
2019-03-06T17:37:35.048Z,10.08
2019-03-06T17:40:54.138Z,10.14
2019-03-06T17:44:02.768Z,10.00
2019-03-06T17:47:12.087Z,9.93
2019-03-06T17:50:31.440Z,9.87
2019-03-06T17:53:50.411Z,9.91
2019-03-06T17:56:59.104Z,9.88
2019-03-06T18:00:16.706Z,9.91
2019-03-06T18:03:25.220Z,9.86
2019-03-06T18:06:33.815Z,9.94
2019-03-06T18:09:42.455Z,9.91
2019-03-06T18:12:51.167Z,9.92
2019-03-06T18:16:00.050Z,9.89
2019-03-06T18:19:08.719Z,9.91
2019-03-06T18:22:18.346Z,9.83
2019-03-06T18:25:25.531Z,9.84
2019-03-06T18:28:35.407Z,9.78
2019-03-06T18:31:44.305Z,9.71
2019-03-06T18:34:53.073Z,9.59
2019-03-06T18:38:14.264Z,9.71
2019-03-06T18:41:23.486Z,9.69
2019-03-06T18:44:32.346Z,9.61
2019-03-06T18:47:41.151Z,9.69
2019-03-06T18:50:48.364Z,9.62
2019-03-06T18:53:58.033Z,9.72
2019-03-06T18:57:07.872Z,9.70
2019-03-06T19:00:19.967Z,9.60
2019-03-06T19:03:28.694Z,9.71
2019-03-06T19:06:37.565Z,9.77
2019-03-06T19:09:46.148Z,9.83
2019-03-06T19:12:54.837Z,9.79
2019-03-06T19:16:03.484Z,9.69
2019-03-06T19:19:12.051Z,9.77
2019-03-06T19:22:20.812Z,9.78
2019-03-06T19:25:31.237Z,9.80
2019-03-06T19:28:39.935Z,9.93
2019-03-06T19:31:58.825Z,9.72
2019-03-06T19:35:07.525Z,9.81
2019-03-06T19:38:16.209Z,9.83
2019-03-06T19:41:24.863Z,9.88
2019-03-06T19:44:33.806Z,9.83
2019-03-06T19:47:42.465Z,9.68
2019-03-06T19:50:51.159Z,9.84
2019-03-06T19:53:59.897Z,9.74
2019-03-06T19:57:08.821Z,9.63
2019-03-06T20:00:17.685Z,9.62
2019-03-06T20:03:26.356Z,9.76
2019-03-06T20:06:35.088Z,9.73
2019-03-06T20:09:43.952Z,9.85
2019-03-06T20:12:52.636Z,9.84
2019-03-06T20:16:01.320Z,9.86
2019-03-06T20:19:10.121Z,9.81
2019-03-06T20:22:18.913Z,9.74
2019-03-06T20:25:27.710Z,9.78
2019-03-06T20:28:36.378Z,9.85
2019-03-06T20:31:45.132Z,9.88
2019-03-06T20:34:53.706Z,9.91
2019-03-06T20:38:12.875Z,9.98
2019-03-06T20:41:22.370Z,9.91
2019-03-06T20:44:31.032Z,9.90
2019-03-06T20:47:39.708Z,9.86
2019-03-06T20:50:50.271Z,9.97
2019-03-06T20:53:58.920Z,10.02
2019-03-06T20:57:07.631Z,10.01
2019-03-06T21:00:27.470Z,10.10
2019-03-06T21:03:36.062Z,9.93
2019-03-06T21:06:44.740Z,10.06
2019-03-06T21:09:53.268Z,10.10
2019-03-06T21:13:12.077Z,9.99
2019-03-06T21:16:20.771Z,9.93
2019-03-06T21:19:30.387Z,10.01
2019-03-06T21:22:38.987Z,10.11
2019-03-06T21:25:57.859Z,10.26
2019-03-06T21:29:06.691Z,10.21
2019-03-06T21:32:15.488Z,10.35
2019-03-06T21:35:24.350Z,10.26
2019-03-06T21:38:33.089Z,10.32
2019-03-06T21:41:41.758Z,10.29
2019-03-06T21:44:50.535Z,10.30
2019-03-06T21:47:59.299Z,10.17
2019-03-06T21:51:07.983Z,10.36
2019-03-06T21:54:16.651Z,10.39
2019-03-06T21:57:25.245Z,10.37
2019-03-06T22:00:33.908Z,10.32
2019-03-06T22:03:42.601Z,10.53
2019-03-06T22:06:51.320Z,10.55
2019-03-06T22:10:00.077Z,10.53
2019-03-06T22:13:08.753Z,10.50
2019-03-06T22:16:29.142Z,10.57
2019-03-06T22:19:37.733Z,10.64
2019-03-06T22:22:46.579Z,10.59
2019-03-06T22:25:55.547Z,10.57
2019-03-06T22:29:04.222Z,10.45
2019-03-06T22:32:12.907Z,10.59
2019-03-06T22:35:21.722Z,10.61
2019-03-06T22:38:30.406Z,10.64
2019-03-06T22:41:39.081Z,10.68
2019-03-06T22:44:47.789Z,10.79
2019-03-06T22:47:56.514Z,10.79
2019-03-06T22:51:05.187Z,10.88
2019-03-06T22:54:13.863Z,10.89
2019-03-06T22:57:22.571Z,10.83
2019-03-06T23:00:53.819Z,10.90
2019-03-06T23:04:02.350Z,10.94
2019-03-06T23:07:11.294Z,10.99
2019-03-06T23:10:19.978Z,10.99
2019-03-06T23:13:28.672Z,10.92
2019-03-06T23:16:38.617Z,10.93
2019-03-06T23:19:47.611Z,11.01
2019-03-06T23:22:57.071Z,11.13
2019-03-06T23:26:05.636Z,11.17
2019-03-06T23:29:14.282Z,11.20
2019-03-06T23:32:23.262Z,11.17
2019-03-06T23:35:31.976Z,11.25
2019-03-06T23:38:40.648Z,11.23
2019-03-06T23:41:49.245Z,11.16
2019-03-06T23:44:58.165Z,11.19
2019-03-06T23:48:06.835Z,11.17
2019-03-06T23:51:30.561Z,11.22
2019-03-06T23:54:39.136Z,11.10
2019-03-06T23:57:49.537Z,10.86
